createdAt,value
2022-07-28T00:01:09.393Z,23.35
2022-07-28T00:04:12.566Z,23.44
2022-07-28T00:07:15.558Z,23.43
2022-07-28T00:10:18.533Z,23.43
2022-07-28T00:13:21.218Z,23.38
2022-07-28T00:16:24.197Z,23.34
2022-07-28T00:19:26.924Z,23.27
2022-07-28T00:22:29.820Z,23.32
2022-07-28T00:25:32.376Z,23.31
2022-07-28T00:28:35.874Z,23.29
2022-07-28T00:31:38.547Z,23.30
2022-07-28T00:34:41.490Z,23.24
2022-07-28T00:37:45.186Z,23.18
2022-07-28T00:41:10.825Z,23.03
2022-07-28T00:44:13.701Z,23.07
2022-07-28T00:47:17.374Z,23.12
2022-07-28T00:50:20.037Z,23.00
2022-07-28T00:53:23.463Z,23.06
2022-07-28T00:56:26.126Z,23.00
2022-07-28T00:59:29.126Z,23.02
2022-07-28T01:02:32.640Z,23.08
2022-07-28T01:06:13.282Z,23.10
2022-07-28T01:09:53.424Z,23.06
2022-07-28T01:13:01.617Z,22.95
2022-07-28T01:16:05.809Z,22.84
2022-07-28T01:19:21.285Z,22.91
2022-07-28T01:22:25.978Z,22.90
2022-07-28T01:25:41.293Z,22.83
2022-07-28T01:28:54.182Z,22.89
2022-07-28T01:32:05.407Z,22.87
2022-07-28T01:35:21.764Z,22.84
2022-07-28T01:38:25.176Z,22.81
2022-07-28T01:41:30.036Z,22.78
2022-07-28T01:44:37.050Z,22.76
2022-07-28T01:47:42.176Z,22.73
2022-07-28T01:50:47.527Z,22.68
2022-07-28T01:53:51.981Z,22.66
2022-07-28T01:56:56.176Z,22.67
2022-07-28T02:00:00.359Z,22.62
2022-07-28T02:03:07.126Z,22.64
2022-07-28T02:06:10.889Z,22.56
2022-07-28T02:09:13.901Z,22.55
2022-07-28T02:12:18.697Z,22.48
2022-07-28T02:15:22.574Z,22.45
2022-07-28T02:18:25.919Z,22.42
2022-07-28T02:21:31.530Z,22.42
2022-07-28T02:24:34.973Z,22.35
2022-07-28T02:28:02.388Z,22.29
2022-07-28T02:31:09.669Z,22.25
2022-07-28T02:34:13.359Z,22.19
2022-07-28T02:37:18.033Z,22.12
2022-07-28T02:40:23.547Z,22.10
2022-07-28T02:43:49.560Z,22.08
2022-07-28T02:46:53.579Z,22.05
2022-07-28T02:49:58.769Z,22.00
2022-07-28T02:53:15.596Z,21.75
2022-07-28T02:56:19.623Z,21.69
2022-07-28T02:59:23.788Z,21.73
2022-07-28T03:02:30.796Z,21.75
2022-07-28T03:05:33.550Z,21.75
2022-07-28T03:08:36.584Z,21.71
2022-07-28T03:11:53.104Z,21.75
2022-07-28T03:14:56.177Z,21.75
2022-07-28T03:18:00.322Z,21.65
2022-07-28T03:21:03.244Z,21.58
2022-07-28T03:24:06.590Z,21.60
2022-07-28T03:27:12.512Z,21.58
2022-07-28T03:30:19.283Z,21.60
2022-07-28T03:33:22.290Z,21.67
2022-07-28T03:36:30.230Z,21.68
2022-07-28T03:39:37.893Z,21.74
2022-07-28T03:42:42.664Z,21.77
2022-07-28T03:45:46.610Z,21.83
2022-07-28T03:48:49.787Z,21.78
2022-07-28T03:51:52.810Z,21.78
2022-07-28T03:54:55.397Z,21.76
2022-07-28T03:57:58.910Z,21.77
2022-07-28T04:01:01.571Z,21.76
2022-07-28T04:04:04.679Z,21.76
2022-07-28T04:07:07.285Z,21.81
2022-07-28T04:10:13.248Z,21.84
2022-07-28T04:13:15.789Z,21.85
2022-07-28T04:16:18.702Z,21.85
2022-07-28T04:19:21.411Z,21.92
2022-07-28T04:22:24.361Z,21.96
2022-07-28T04:25:27.676Z,22.01
2022-07-28T04:28:30.692Z,22.06
2022-07-28T04:31:33.375Z,22.12
2022-07-28T04:34:36.593Z,22.09
2022-07-28T04:37:39.777Z,22.17
2022-07-28T04:40:43.044Z,22.32
2022-07-28T04:43:45.575Z,22.36
2022-07-28T04:46:48.542Z,22.49
2022-07-28T04:49:51.647Z,22.57
2022-07-28T04:52:54.480Z,22.67
2022-07-28T04:55:57.447Z,22.73
2022-07-28T04:59:01.687Z,22.81
2022-07-28T05:02:06.494Z,22.87
2022-07-28T05:05:09.951Z,22.95
2022-07-28T05:08:12.577Z,22.98
2022-07-28T05:11:15.499Z,23.03
2022-07-28T05:14:18.205Z,23.11
2022-07-28T05:17:21.071Z,23.17
2022-07-28T05:20:23.917Z,23.25
2022-07-28T05:23:26.870Z,23.25
2022-07-28T05:26:31.045Z,23.37
2022-07-28T05:29:46.814Z,23.45
2022-07-28T05:32:51.137Z,23.45
2022-07-28T05:35:57.551Z,23.59
2022-07-28T05:39:00.092Z,23.75
2022-07-28T05:42:03.007Z,23.75
2022-07-28T05:45:15.634Z,23.82
2022-07-28T05:48:21.486Z,23.82
2022-07-28T05:51:24.193Z,24.07
2022-07-28T05:54:27.336Z,24.14
2022-07-28T05:57:29.962Z,24.25
2022-07-28T06:00:33.679Z,24.32
2022-07-28T06:03:41.825Z,24.41
2022-07-28T06:06:44.903Z,24.49
2022-07-28T06:09:47.818Z,24.56
2022-07-28T06:12:53.369Z,24.60
2022-07-28T06:15:56.686Z,24.73
2022-07-28T06:18:59.292Z,24.76
2022-07-28T06:22:03.798Z,24.89
2022-07-28T06:25:06.760Z,24.85
2022-07-28T06:28:09.696Z,24.90
2022-07-28T06:31:12.644Z,24.97
2022-07-28T06:34:15.967Z,24.87
2022-07-28T06:37:18.742Z,24.93
2022-07-28T06:40:22.179Z,24.98
2022-07-28T06:43:24.880Z,24.97
2022-07-28T06:46:28.086Z,25.08
2022-07-28T06:49:30.813Z,25.10
2022-07-28T06:52:34.138Z,25.18
2022-07-28T06:55:37.564Z,25.33
2022-07-28T06:58:40.608Z,25.47
2022-07-28T07:01:46.531Z,25.43
2022-07-28T07:04:51.616Z,25.51
2022-07-28T07:07:54.329Z,25.80
2022-07-28T07:10:57.294Z,25.88
2022-07-28T07:14:02.500Z,26.02
2022-07-28T07:17:05.683Z,26.09
2022-07-28T07:20:09.186Z,26.09
2022-07-28T07:23:13.042Z,26.15
2022-07-28T07:26:15.666Z,26.21
2022-07-28T07:29:19.888Z,26.29
2022-07-28T07:32:22.427Z,26.49
2022-07-28T07:35:25.340Z,26.69
2022-07-28T07:38:29.383Z,26.93
2022-07-28T07:41:32.321Z,27.02
2022-07-28T07:44:35.457Z,27.06
2022-07-28T07:47:38.401Z,27.17
2022-07-28T07:50:41.080Z,27.32
2022-07-28T07:53:43.920Z,27.55
2022-07-28T07:56:46.518Z,27.75
2022-07-28T07:59:49.413Z,27.92
2022-07-28T08:02:52.039Z,28.16
2022-07-28T08:05:57.765Z,28.33
2022-07-28T08:09:00.314Z,28.29
2022-07-28T08:12:03.500Z,28.32
2022-07-28T08:15:06.900Z,28.42
2022-07-28T08:18:10.074Z,28.31
2022-07-28T08:21:13.381Z,28.46
2022-07-28T08:24:27.757Z,28.56
2022-07-28T08:27:36.402Z,28.87
2022-07-28T08:30:39.719Z,29.08
2022-07-28T08:33:53.482Z,29.38
2022-07-28T08:36:57.977Z,29.57
2022-07-28T08:40:00.860Z,29.79
2022-07-28T08:43:14.637Z,29.72
2022-07-28T08:46:17.694Z,29.77
2022-07-28T08:49:21.057Z,30.02
2022-07-28T08:52:24.872Z,30.18
2022-07-28T08:55:32.018Z,30.26
2022-07-28T08:58:36.557Z,30.52
2022-07-28T09:01:39.671Z,30.70
2022-07-28T09:04:42.958Z,30.65
2022-07-28T09:07:54.415Z,30.72
2022-07-28T09:10:57.356Z,30.98
2022-07-28T09:14:00.263Z,31.23
2022-07-28T09:17:05.479Z,31.13
2022-07-28T09:20:11.488Z,31.22
2022-07-28T09:23:42.314Z,31.20
2022-07-28T09:26:37.426Z,31.21
2022-07-28T09:29:58.844Z,31.36
2022-07-28T09:33:41.114Z,31.38
2022-07-28T09:36:39.656Z,31.51
2022-07-28T09:39:42.521Z,31.64
2022-07-28T09:42:55.478Z,31.76
2022-07-28T09:46:08.814Z,31.73
2022-07-28T09:49:11.928Z,31.69
2022-07-28T09:52:27.936Z,31.80
2022-07-28T09:55:35.285Z,31.94
2022-07-28T09:58:39.894Z,31.91
2022-07-28T10:01:56.478Z,32.05
2022-07-28T10:05:00.298Z,32.20
2022-07-28T10:08:03.307Z,32.17
2022-07-28T10:11:06.345Z,31.62
2022-07-28T10:14:09.097Z,31.50
2022-07-28T10:17:22.469Z,31.95
2022-07-28T10:20:25.253Z,31.72
2022-07-28T10:23:28.170Z,32.12
2022-07-28T10:26:39.325Z,32.61
2022-07-28T10:29:43.787Z,32.76
2022-07-28T10:32:46.539Z,32.79
2022-07-28T10:35:55.410Z,32.62
2022-07-28T10:39:12.116Z,32.80
2022-07-28T10:42:15.375Z,32.83
2022-07-28T10:45:17.890Z,32.87
2022-07-28T10:48:23.664Z,33.12
2022-07-28T10:51:28.406Z,33.25
2022-07-28T10:54:38.296Z,33.48
2022-07-28T10:58:02.133Z,33.32
2022-07-28T11:01:48.255Z,33.61
2022-07-28T11:04:55.355Z,33.48
2022-07-28T11:08:01.270Z,33.28
2022-07-28T11:11:09.216Z,33.27
2022-07-28T11:14:24.816Z,33.61
2022-07-28T11:17:33.829Z,33.75
2022-07-28T11:20:56.461Z,33.51
2022-07-28T11:24:02.913Z,33.67
2022-07-28T11:27:05.797Z,33.84
2022-07-28T11:30:32.778Z,33.80
2022-07-28T11:33:57.491Z,33.90
2022-07-28T11:37:03.167Z,33.58
2022-07-28T11:40:43.974Z,33.64
2022-07-28T11:43:46.589Z,33.82
2022-07-28T11:46:52.571Z,33.72
2022-07-28T11:50:16.960Z,34.09
2022-07-28T11:53:20.025Z,34.37
2022-07-28T11:56:29.319Z,34.26
2022-07-28T12:00:02.060Z,34.34
2022-07-28T12:03:09.266Z,34.57
2022-07-28T12:06:13.490Z,34.59
2022-07-28T12:09:21.883Z,34.41
2022-07-28T12:12:28.783Z,34.49
2022-07-28T12:15:31.512Z,34.34
2022-07-28T12:18:34.435Z,34.37
2022-07-28T12:21:48.227Z,34.14
2022-07-28T12:24:57.050Z,34.43
2022-07-28T12:28:13.595Z,34.70
2022-07-28T12:31:17.147Z,34.85
2022-07-28T12:34:19.765Z,34.72
2022-07-28T12:37:23.630Z,35.03
2022-07-28T12:40:29.573Z,34.16
2022-07-28T12:43:34.288Z,34.43
2022-07-28T12:46:36.934Z,34.66
2022-07-28T12:49:41.532Z,34.86
2022-07-28T12:52:45.880Z,34.90
2022-07-28T12:55:48.942Z,34.53
2022-07-28T12:59:08.203Z,34.28
2022-07-28T13:02:11.404Z,33.74
2022-07-28T13:05:31.823Z,33.97
2022-07-28T13:08:44.777Z,33.95
2022-07-28T13:11:48.077Z,34.22
2022-07-28T13:14:56.353Z,34.19
2022-07-28T13:17:59.536Z,34.35
2022-07-28T13:21:02.412Z,34.43
2022-07-28T13:24:05.508Z,34.68
2022-07-28T13:27:08.920Z,34.93
2022-07-28T13:30:12.056Z,34.65
2022-07-28T13:33:14.986Z,34.91
2022-07-28T13:36:17.631Z,34.66
2022-07-28T13:39:20.773Z,34.12
2022-07-28T13:42:23.868Z,33.99
2022-07-28T13:45:30.205Z,33.69
2022-07-28T13:48:33.233Z,33.42
2022-07-28T13:51:36.842Z,33.39
2022-07-28T13:54:40.316Z,33.64
2022-07-28T13:57:43.276Z,33.92
2022-07-28T14:00:46.248Z,33.76
2022-07-28T14:03:55.503Z,33.60
2022-07-28T14:07:00.768Z,33.63
2022-07-28T14:10:06.959Z,32.90
2022-07-28T14:13:10.041Z,33.23
2022-07-28T14:16:14.582Z,33.52
2022-07-28T14:19:23.330Z,33.53
2022-07-28T14:22:41.013Z,33.80
2022-07-28T14:25:49.304Z,34.04
2022-07-28T14:28:53.238Z,34.17
2022-07-28T14:31:59.358Z,34.37
2022-07-28T14:35:02.615Z,34.38
2022-07-28T14:38:51.227Z,34.17
2022-07-28T14:41:31.657Z,34.38
2022-07-28T14:44:34.428Z,34.29
2022-07-28T14:47:44.646Z,34.22
2022-07-28T14:50:48.504Z,34.22
2022-07-28T14:53:52.164Z,34.37
2022-07-28T14:56:54.937Z,34.02
2022-07-28T14:59:57.771Z,34.04
2022-07-28T15:03:00.420Z,34.10
2022-07-28T15:06:05.598Z,34.21
2022-07-28T15:09:09.461Z,34.16
2022-07-28T15:12:12.409Z,34.23
2022-07-28T15:15:14.924Z,34.24
2022-07-28T15:18:17.788Z,34.20
2022-07-28T15:21:20.543Z,33.93
2022-07-28T15:24:27.197Z,33.91
2022-07-28T15:27:33.308Z,33.69
2022-07-28T15:30:40.244Z,33.69
2022-07-28T15:33:57.673Z,33.90
2022-07-28T15:37:01.101Z,33.83
2022-07-28T15:40:04.678Z,33.49
2022-07-28T15:43:07.740Z,33.44
2022-07-28T15:46:11.959Z,33.60
2022-07-28T15:49:15.109Z,33.48
2022-07-28T15:52:17.752Z,33.42
2022-07-28T15:55:21.448Z,33.43
2022-07-28T15:58:26.393Z,33.51
2022-07-28T16:01:30.405Z,33.41
2022-07-28T16:04:33.780Z,33.49
2022-07-28T16:07:36.354Z,33.30
2022-07-28T16:10:39.941Z,33.44
2022-07-28T16:13:42.848Z,33.14
2022-07-28T16:16:45.762Z,33.16
2022-07-28T16:19:50.234Z,33.01
2022-07-28T16:22:53.461Z,32.91
2022-07-28T16:25:55.985Z,32.85
2022-07-28T16:28:58.992Z,32.77
2022-07-28T16:32:01.577Z,32.67
2022-07-28T16:35:06.858Z,32.48
2022-07-28T16:38:09.464Z,32.28
2022-07-28T16:41:12.269Z,32.11
2022-07-28T16:44:19.600Z,32.10
2022-07-28T16:47:22.556Z,31.93
2022-07-28T16:50:25.534Z,31.85
2022-07-28T16:53:28.436Z,31.85
2022-07-28T16:56:31.072Z,31.82
2022-07-28T16:59:37.647Z,31.76
2022-07-28T17:02:51.300Z,31.86
2022-07-28T17:05:54.424Z,31.63
2022-07-28T17:08:57.235Z,31.61
2022-07-28T17:12:00.277Z,31.57
2022-07-28T17:15:02.983Z,31.49
2022-07-28T17:18:06.918Z,31.53
2022-07-28T17:21:09.454Z,31.39
2022-07-28T17:24:16.431Z,31.33
2022-07-28T17:30:42.319Z,31.19
2022-07-28T17:33:44.954Z,31.11
2022-07-28T17:36:48.232Z,30.96
2022-07-28T17:39:50.798Z,30.90
2022-07-28T17:42:54.049Z,30.73
2022-07-28T17:45:56.847Z,30.62
2022-07-28T17:48:59.844Z,30.51
2022-07-28T17:52:03.631Z,30.35
2022-07-28T17:55:25.821Z,30.19
2022-07-28T17:58:33.481Z,30.12
2022-07-28T18:01:36.455Z,29.98
2022-07-28T18:04:40.362Z,29.86
2022-07-28T18:07:50.111Z,29.70
2022-07-28T18:10:55.055Z,29.60
2022-07-28T18:14:04.221Z,29.46
2022-07-28T18:17:07.943Z,29.24
2022-07-28T18:20:11.772Z,29.19
2022-07-28T18:23:14.629Z,29.08
2022-07-28T18:26:17.215Z,28.96
2022-07-28T18:29:21.426Z,28.85
2022-07-28T18:32:24.357Z,28.73
2022-07-28T18:35:28.040Z,28.55
2022-07-28T18:38:30.705Z,28.48
2022-07-28T18:41:46.652Z,28.37
2022-07-28T18:44:50.280Z,28.29
2022-07-28T18:47:55.286Z,28.11
2022-07-28T18:50:58.623Z,27.96
2022-07-28T18:54:01.485Z,27.80
2022-07-28T18:57:04.143Z,27.70
2022-07-28T19:00:11.102Z,27.58
2022-07-28T19:03:13.708Z,27.35
2022-07-28T19:06:16.852Z,27.29
2022-07-28T19:09:19.739Z,27.20
2022-07-28T19:12:24.472Z,27.10
2022-07-28T19:15:27.168Z,26.99
2022-07-28T19:18:30.051Z,26.93
2022-07-28T19:21:32.661Z,26.81
2022-07-28T19:24:35.892Z,26.76
2022-07-28T19:27:38.666Z,26.57
2022-07-28T19:30:42.413Z,26.33
2022-07-28T19:33:45.026Z,26.31
2022-07-28T19:36:49.094Z,26.25
2022-07-28T19:39:51.861Z,26.18
2022-07-28T19:42:54.733Z,26.10
2022-07-28T19:46:00.143Z,26.05
2022-07-28T19:49:04.324Z,26.02
2022-07-28T19:52:07.117Z,25.97
2022-07-28T19:55:10.004Z,25.99
2022-07-28T19:58:12.717Z,25.85
2022-07-28T20:01:15.998Z,25.85
2022-07-28T20:04:19.222Z,25.82
2022-07-28T20:07:23.902Z,25.66
2022-07-28T20:10:26.918Z,25.61
2022-07-28T20:13:29.563Z,25.51
2022-07-28T20:16:32.505Z,25.45
2022-07-28T20:19:35.172Z,25.41
2022-07-28T20:22:38.115Z,25.37
2022-07-28T20:25:41.832Z,25.21
2022-07-28T20:28:44.755Z,25.07
2022-07-28T20:31:47.341Z,25.02
2022-07-28T20:34:51.475Z,24.98
2022-07-28T20:37:54.412Z,24.90
2022-07-28T20:40:57.327Z,24.85
2022-07-28T20:44:27.455Z,24.74
2022-07-28T20:47:23.398Z,24.69
2022-07-28T20:50:26.209Z,24.63
2022-07-28T20:53:29.119Z,24.62
2022-07-28T20:56:31.724Z,24.60
2022-07-28T20:59:34.519Z,24.53
2022-07-28T21:02:37.194Z,24.45
2022-07-28T21:05:40.821Z,24.46
2022-07-28T21:08:46.945Z,24.41
2022-07-28T21:11:50.337Z,24.36
2022-07-28T21:14:52.852Z,24.31
2022-07-28T21:17:57.233Z,24.27
2022-07-28T21:21:00.063Z,24.17
2022-07-28T21:24:02.977Z,24.09
2022-07-28T21:27:05.542Z,24.00
2022-07-28T21:30:09.050Z,24.02
2022-07-28T21:33:12.378Z,23.98
2022-07-28T21:36:25.590Z,23.93
2022-07-28T21:39:28.406Z,23.89
2022-07-28T21:42:31.328Z,23.88
2022-07-28T21:45:33.951Z,23.78
2022-07-28T21:48:36.985Z,23.73
2022-07-28T21:51:40.463Z,23.66
2022-07-28T21:54:43.324Z,23.67
2022-07-28T21:57:45.975Z,23.72
2022-07-28T22:00:48.925Z,23.62
2022-07-28T22:03:52.165Z,23.62
2022-07-28T22:06:54.733Z,23.65
2022-07-28T22:09:58.558Z,23.68
2022-07-28T22:13:01.185Z,23.64
2022-07-28T22:16:04.279Z,23.66
2022-07-28T22:19:06.891Z,23.67
2022-07-28T22:22:09.910Z,23.71
2022-07-28T22:25:12.504Z,23.85
2022-07-28T22:28:15.439Z,23.92
2022-07-28T22:31:21.203Z,24.00
2022-07-28T22:34:24.189Z,24.07
2022-07-28T22:37:26.814Z,24.01
2022-07-28T22:40:29.687Z,24.04
2022-07-28T22:43:33.548Z,24.12
2022-07-28T22:46:36.507Z,24.20
2022-07-28T22:49:39.092Z,24.24
2022-07-28T22:52:41.957Z,24.23
2022-07-28T22:55:44.762Z,24.18
2022-07-28T22:58:47.610Z,24.12
2022-07-28T23:01:50.205Z,24.07
2022-07-28T23:04:53.738Z,24.13
2022-07-28T23:07:57.613Z,24.13
2022-07-28T23:11:02.118Z,24.06
2022-07-28T23:14:04.711Z,24.07
2022-07-28T23:17:07.609Z,24.14
2022-07-28T23:20:11.095Z,24.16
2022-07-28T23:23:15.277Z,24.08
2022-07-28T23:26:17.873Z,24.12
2022-07-28T23:29:20.675Z,24.20
2022-07-28T23:32:23.184Z,24.04
2022-07-28T23:35:26.029Z,24.02
2022-07-28T23:38:28.567Z,24.05
2022-07-28T23:41:31.559Z,24.03
2022-07-28T23:44:34.177Z,24.03
2022-07-28T23:47:37.182Z,23.90
2022-07-28T23:50:39.759Z,23.98
2022-07-28T23:53:42.651Z,24.01
2022-07-28T23:56:45.240Z,23.93
2022-07-28T23:59:48.042Z,23.98
